Time;durP1;ratioP1;P1;durP2;ratioP2;P2;SDS_P1;SDS_P2;PMS_P1;PMS_P2;Temp;Humidity;BMP_temperature;BMP_pressure;BME280_temperature;BME280_humidity;BME280_pressure;Samples;Min_cycle;Max_cycle;Signal;HPM_P1;HPM_P2
2022/08/06 00:02:07;;;;;;;3.45;2.60;;;;;;;28.01;43.74;100419.91;1779226;79;21184;-83
2022/08/06 00:04:33;;;;;;;2.92;2.25;;;;;;;28.03;43.75;100420.94;1779302;79;21011;-84
2022/08/06 00:06:59;;;;;;;3.35;2.40;;;;;;;28.02;43.76;100420.13;1770602;80;21026;-82
2022/08/06 00:09:30;;;;;;;3.20;2.90;;;;;;;28.02;43.79;100419.33;1779333;79;21214;-84
2022/08/06 00:11:59;;;;;;;3.27;2.70;;;;;;;28.02;43.80;100426.31;1779395;80;21043;-84
2022/08/06 00:14:33;;;;;;;2.72;2.50;;;;;;;28.02;43.79;100419.33;1779036;79;21529;-83
2022/08/06 00:16:59;;;;;;;3.67;2.55;;;;;;;28.02;43.78;100420.72;1779174;80;20988;-84
2022/08/06 00:19:26;;;;;;;2.72;2.33;;;;;;;28.01;43.80;100417.11;1779444;80;21007;-84
2022/08/06 00:21:52;;;;;;;2.65;2.42;;;;;;;28.01;43.81;100417.11;1796671;79;21039;-84
2022/08/06 00:24:18;;;;;;;4.70;2.60;;;;;;;28.02;43.82;100417.92;1777234;80;21470;-84
2022/08/06 00:26:45;;;;;;;2.72;2.52;;;;;;;28.01;43.82;100413.51;1776216;79;21157;-83
2022/08/06 00:29:11;;;;;;;2.65;2.37;;;;;;;28.02;43.85;100412.33;1776210;79;21016;-83
2022/08/06 00:31:38;;;;;;;2.80;2.50;;;;;;;28.02;43.85;100417.92;1776012;80;21071;-84
2022/08/06 00:34:05;;;;;;;3.70;2.65;;;;;;;28.02;43.87;100413.14;1776236;80;21043;-83
2022/08/06 00:36:32;;;;;;;3.08;2.65;;;;;;;28.01;43.87;100410.13;1776085;79;21044;-84
2022/08/06 00:39:02;;;;;;;3.37;2.20;;;;;;;28.01;43.88;100407.33;1775792;79;21955;-83
2022/08/06 00:41:29;;;;;;;3.67;2.60;;;;;;;28.01;43.87;100412.92;1775737;80;21043;-84
2022/08/06 00:43:56;;;;;;;3.10;2.52;;;;;;;28.01;43.88;100409.31;1775823;79;21055;-84
2022/08/06 00:46:23;;;;;;;3.05;2.50;;;;;;;28.01;43.89;100417.11;1775697;79;21490;-83
2022/08/06 00:48:56;;;;;;;2.42;2.22;;;;;;;28.01;43.88;100416.30;1774564;80;21033;-84
2022/08/06 00:51:22;;;;;;;2.77;2.55;;;;;;;28.01;43.89;100414.91;1707121;82;21798;-83
2022/08/06 00:53:50;;;;;;;3.33;2.87;;;;;;;28.01;43.89;100415.72;1706868;84;21073;-84
2022/08/06 00:56:17;;;;;;;3.20;2.77;;;;;;;28.01;43.90;100421.31;1707326;84;21069;-83
2022/08/06 00:58:43;;;;;;;2.90;2.50;;;;;;;28.01;43.92;100421.31;1773437;80;21049;-83
2022/08/06 01:01:15;;;;;;;3.17;2.70;;;;;;;28.00;43.92;100421.12;1706624;82;21160;-84
2022/08/06 01:03:42;;;;;;;4.70;2.90;;;;;;;28.01;43.93;100425.50;1773556;80;21281;-83
2022/08/06 01:06:09;;;;;;;2.92;2.52;;;;;;;28.02;43.95;100423.52;1773719;80;21005;-84
2022/08/06 01:08:35;;;;;;;3.08;2.50;;;;;;;28.01;43.93;100426.91;1706871;82;21507;-84
2022/08/06 01:11:02;;;;;;;2.90;2.60;;;;;;;28.00;43.94;100423.92;1707143;83;21117;-83
2022/08/06 01:13:29;;;;;;;3.33;2.62;;;;;;;28.01;43.95;100423.30;1773712;80;20996;-83
2022/08/06 01:16:25;;;;;;;3.02;2.65;;;;;;;28.01;43.95;100428.30;1706693;83;21858;-83
2022/08/06 01:19:21;;;;;;;3.42;2.83;;;;;;;28.01;43.96;100425.50;1648879;85;21405;-84
2022/08/06 01:22:19;;;;;;;3.92;2.80;;;;;;;28.01;43.96;100428.30;1757334;81;21025;-83
2022/08/06 01:25:16;;;;;;;3.35;2.77;;;;;;;28.00;43.95;100422.52;1692417;82;21555;-84
2022/08/06 01:27:58;;;;;;;2.90;2.55;;;;;;;28.00;43.95;100428.70;1674664;84;21002;-84
2022/08/06 01:30:31;;;;;;;3.12;2.85;;;;;;;27.98;43.99;100426.27;1675106;84;21160;-84
2022/08/06 01:33:09;;;;;;;3.05;2.72;;;;;;;27.98;44.01;100424.06;1740231;81;21056;-84
2022/08/06 01:35:39;;;;;;;2.77;2.47;;;;;;;27.98;44.03;100423.47;1741514;82;21077;-83
2022/08/06 01:38:13;;;;;;;3.08;2.75;;;;;;;27.98;44.04;100421.27;1741448;81;21108;-83
2022/08/06 01:40:40;;;;;;;3.10;2.80;;;;;;;27.97;44.04;100419.64;1741700;81;20949;-84
2022/08/06 01:43:09;;;;;;;2.75;2.52;;;;;;;27.98;44.06;100423.47;1741263;81;21080;-83
2022/08/06 01:45:35;;;;;;;3.42;2.95;;;;;;;27.98;44.07;100424.87;1741063;81;21104;-83
2022/08/06 01:48:04;;;;;;;3.25;2.60;;;;;;;27.98;44.08;100423.47;1741424;82;21579;-83
2022/08/06 01:50:38;;;;;;;3.58;2.87;;;;;;;27.99;44.12;100418.69;1741414;81;21064;-84
2022/08/06 01:53:06;;;;;;;3.40;2.80;;;;;;;27.99;44.12;100421.48;1740760;81;21051;-84
2022/08/06 01:55:41;;;;;;;4.35;3.02;;;;;;;27.98;44.10;100419.28;1741084;82;20987;-83
2022/08/06 01:58:07;;;;;;;3.10;2.70;;;;;;;27.98;44.12;100420.67;1740886;82;21509;-83
2022/08/06 02:00:38;;;;;;;3.02;2.72;;;;;;;27.98;44.10;100418.47;1741206;81;21053;-83
2022/08/06 02:03:16;;;;;;;;;;;;;;;27.98;44.13;100412.88;1744049;81;21143;-83
2022/08/06 02:05:43;;;;;;;3.15;2.85;;;;;;;27.97;44.16;100423.25;1741216;81;20148;-84
2022/08/06 02:08:10;;;;;;;4.03;2.70;;;;;;;27.97;44.13;100419.64;1741271;82;21547;-84
2022/08/06 02:10:36;;;;;;;3.02;2.72;;;;;;;27.97;44.14;100422.44;1741107;81;21099;-84
2022/08/06 02:13:03;;;;;;;2.85;2.58;;;;;;;27.97;44.15;100418.24;1740986;81;20967;-84
2022/08/06 02:15:30;;;;;;;3.77;3.00;;;;;;;27.97;44.16;100416.26;1741156;81;21057;-84
2022/08/06 02:17:58;;;;;;;3.02;2.55;;;;;;;27.97;44.16;100418.24;1741119;82;21567;-83
2022/08/06 02:20:35;;;;;;;3.45;3.15;;;;;;;27.97;44.17;100419.64;1740980;81;21156;-84
2022/08/06 02:23:03;;;;;;;3.10;2.80;;;;;;;27.98;44.18;100425.45;1741372;81;21033;-84
2022/08/06 02:25:29;;;;;;;4.75;3.10;;;;;;;27.97;44.17;100423.25;1743576;80;21017;-83
2022/08/06 02:27:57;;;;;;;3.33;3.02;;;;;;;27.98;44.19;100425.45;1744429;81;21068;-83
2022/08/06 02:30:23;;;;;;;4.08;2.70;;;;;;;27.98;44.21;100422.66;1744551;82;21472;-83
2022/08/06 02:32:50;;;;;;;4.42;2.67;;;;;;;27.99;44.21;100427.08;1744309;82;22059;-83
2022/08/06 02:35:16;;;;;;;2.92;2.62;;;;;;;27.99;44.21;100425.68;1744447;80;21077;-83
2022/08/06 02:37:48;;;;;;;3.22;2.80;;;;;;;27.98;44.22;100429.06;1727409;80;21566;-83
2022/08/06 02:40:25;;;;;;;3.12;2.70;;;;;;;27.99;44.22;100424.28;1774812;79;21009;-84
2022/08/06 02:43:16;;;;;;;4.15;3.30;;;;;;;27.99;44.22;100420.90;1775207;79;21495;-84
2022/08/06 02:45:50;;;;;;;3.05;2.75;;;;;;;27.98;44.21;100423.47;1775052;80;21347;-84
2022/08/06 02:48:30;;;;;;;3.92;3.00;;;;;;;27.98;44.20;100429.06;1775009;80;21087;-83
2022/08/06 02:50:56;;;;;;;3.00;2.70;;;;;;;27.98;44.24;100419.86;1775287;80;21162;-84
2022/08/06 02:53:31;;;;;;;3.00;2.70;;;;;;;27.98;44.24;100427.66;1775295;79;21428;-84
2022/08/06 02:56:08;;;;;;;3.22;2.92;;;;;;;27.98;44.25;100430.46;1774997;79;21571;-83
2022/08/06 02:58:47;;;;;;;3.55;2.72;;;;;;;27.98;44.25;100423.47;1775066;80;21370;-84
2022/08/06 03:01:24;;;;;;;3.10;2.80;;;;;;;27.97;44.26;100426.05;1775204;79;20985;-84
2022/08/06 03:03:53;;;;;;;4.22;2.87;;;;;;;27.97;44.27;100431.64;1774954;80;20997;-84
2022/08/06 03:06:20;;;;;;;3.55;3.02;;;;;;;27.98;44.29;100436.64;1775338;79;20925;-83
2022/08/06 03:08:46;;;;;;;3.87;2.87;;;;;;;27.97;44.28;100430.23;1775369;79;21072;-83
2022/08/06 03:11:13;;;;;;;3.52;3.00;;;;;;;27.97;44.32;100432.23;1775122;80;21107;-83
2022/08/06 03:13:39;;;;;;;3.27;2.98;;;;;;;27.98;44.32;100429.66;1775218;80;21034;-83
2022/08/06 03:16:06;;;;;;;3.30;2.60;;;;;;;27.97;44.32;100432.23;1755007;80;21054;-83
2022/08/06 03:18:32;;;;;;;5.05;2.98;;;;;;;27.96;44.32;100427.25;1744174;80;21006;-83
2022/08/06 03:20:59;;;;;;;3.15;2.80;;;;;;;27.97;44.34;100435.02;1744650;80;21603;-83
2022/08/06 03:23:26;;;;;;;3.40;2.90;;;;;;;27.97;44.33;100433.03;1744593;81;21192;-83
2022/08/06 03:25:52;;;;;;;3.47;2.67;;;;;;;27.98;44.35;100438.84;1741614;81;21084;-83
2022/08/06 03:28:19;;;;;;;3.67;2.67;;;;;;;27.98;44.35;100441.65;1741312;81;21041;-83
2022/08/06 03:30:45;;;;;;;4.00;3.15;;;;;;;27.99;44.37;100441.06;1741246;81;21033;-83
2022/08/06 03:33:14;;;;;;;3.72;3.10;;;;;;;27.98;44.35;100444.45;1741257;81;21731;-83
2022/08/06 03:35:41;;;;;;;3.50;3.20;;;;;;;27.98;44.35;100450.03;1741226;81;21323;-83
2022/08/06 03:38:10;;;;;;;3.58;2.42;;;;;;;27.99;44.34;100449.45;1741269;81;21025;-84
2022/08/06 03:40:44;;;;;;;3.35;2.95;;;;;;;27.99;44.38;100452.25;1741095;81;21002;-83
2022/08/06 03:43:10;;;;;;;3.33;3.02;;;;;;;27.98;44.34;100453.42;1712266;81;21046;-83
2022/08/06 03:45:41;;;;;;;3.75;3.05;;;;;;;27.98;44.38;100447.23;1741396;81;21045;-83
2022/08/06 03:48:08;;;;;;;4.20;3.08;;;;;;;27.98;44.39;100454.81;1740503;82;21206;-84
2022/08/06 03:50:43;;;;;;;3.62;2.75;;;;;;;27.99;44.40;100456.44;1741375;81;21034;-83
2022/08/06 03:53:14;;;;;;;3.58;3.27;;;;;;;27.98;44.38;100450.63;1741016;81;21049;-84
2022/08/06 03:55:47;;;;;;;3.12;2.83;;;;;;;27.99;44.38;100454.45;1741089;81;21021;-84
2022/08/06 03:58:14;;;;;;;3.42;3.12;;;;;;;27.99;44.40;100457.84;1736503;81;20991;-84
2022/08/06 04:00:47;;;;;;;3.98;3.40;;;;;;;27.98;44.41;100452.83;1741368;81;21158;-83
2022/08/06 04:03:14;;;;;;;2.95;2.65;;;;;;;27.99;44.41;100465.64;1727463;82;21124;-84
2022/08/06 04:05:41;;;;;;;3.02;2.72;;;;;;;27.98;44.41;100459.83;1741246;82;21065;-83
2022/08/06 04:08:08;;;;;;;4.12;3.00;;;;;;;27.99;44.41;100467.63;1741509;81;21028;-84
2022/08/06 04:10:42;;;;;;;3.60;2.98;;;;;;;27.97;44.44;100455.41;1741466;81;21014;-83
2022/08/06 04:13:13;;;;;;;3.40;3.10;;;;;;;27.98;44.45;100465.42;1739972;82;21194;-83
2022/08/06 04:15:40;;;;;;;3.98;2.67;;;;;;;27.98;44.44;100463.20;1741459;82;21047;-83
2022/08/06 04:18:14;;;;;;;3.87;3.22;;;;;;;27.98;44.42;100461.22;1741444;82;21085;-84
2022/08/06 04:20:44;;;;;;;4.05;3.08;;;;;;;27.98;44.47;100464.61;1741220;81;21057;-84
2022/08/06 04:23:10;;;;;;;3.72;3.15;;;;;;;27.98;44.45;100459.83;1741560;81;21040;-84
2022/08/06 04:25:47;;;;;;;3.62;3.05;;;;;;;27.97;44.46;100459.59;1742883;81;21806;-83
2022/08/06 04:28:14;;;;;;;3.37;3.08;;;;;;;27.98;44.45;100462.62;1718098;82;21056;-84
2022/08/06 04:30:40;;;;;;;3.20;2.85;;;;;;;27.98;44.44;100459.83;1746494;80;21037;-84
2022/08/06 04:33:09;;;;;;;3.67;3.35;;;;;;;27.98;44.46;100465.42;1744530;80;21475;-84
2022/08/06 04:35:37;;;;;;;4.10;3.30;;;;;;;27.97;44.47;100462.40;1721200;81;21064;-84
2022/08/06 04:38:03;;;;;;;3.10;2.80;;;;;;;27.98;44.45;100468.80;1723876;81;21152;-83
2022/08/06 04:40:30;;;;;;;3.80;3.02;;;;;;;27.98;44.47;100471.01;1754725;80;21963;-83
2022/08/06 04:42:56;;;;;;;3.58;3.08;;;;;;;27.98;44.48;100463.20;1754705;81;21499;-83
2022/08/06 04:45:23;;;;;;;3.52;2.77;;;;;;;27.99;44.51;100466.23;1754862;80;21067;-83
2022/08/06 04:47:49;;;;;;;3.10;2.80;;;;;;;27.99;44.49;100471.82;1754909;80;21074;-84
2022/08/06 04:50:16;;;;;;;3.67;2.98;;;;;;;27.99;44.50;100474.62;1754508;80;21531;-84
2022/08/06 04:52:42;;;;;;;3.30;2.85;;;;;;;27.99;44.51;100476.83;1754832;80;21008;-83
2022/08/06 04:55:09;;;;;;;3.70;3.20;;;;;;;27.98;44.52;100482.20;1754836;81;21111;-84
2022/08/06 04:57:35;;;;;;;3.33;3.02;;;;;;;27.99;44.52;100482.42;1754700;81;21047;-83
2022/08/06 05:00:01;;;;;;;3.50;3.20;;;;;;;27.99;44.52;100475.42;1755000;81;21048;-84
2022/08/06 05:02:28;;;;;;;4.50;3.00;;;;;;;27.99;44.54;100480.20;1754788;80;21867;-83
2022/08/06 05:04:57;;;;;;;3.37;2.87;;;;;;;28.00;44.52;100484.04;1768337;80;21065;-84
2022/08/06 05:07:28;;;;;;;5.72;3.30;;;;;;;27.99;44.54;100477.41;1785894;79;21434;-83
2022/08/06 05:09:56;;;;;;;4.10;3.12;;;;;;;27.99;44.54;100480.20;1786274;80;21142;-84
2022/08/06 05:12:32;;;;;;;4.05;3.20;;;;;;;27.99;44.54;100478.81;1785908;79;21044;-83
2022/08/06 05:15:13;;;;;;;4.53;3.02;;;;;;;27.99;44.54;100483.81;1786119;80;21438;-84
2022/08/06 05:17:43;;;;;;;3.90;3.30;;;;;;;28.00;44.56;100486.84;1785961;79;21119;-85
2022/08/06 05:20:19;;;;;;;3.62;3.25;;;;;;;27.99;44.54;100485.21;1786467;79;21043;-83
2022/08/06 05:22:49;;;;;;;3.30;2.95;;;;;;;27.99;44.56;100483.81;1785674;79;21070;-84
2022/08/06 05:25:15;;;;;;;;;;;;;;;27.99;44.57;100483.81;1787765;78;21071;-84
2022/08/06 05:27:42;;;;;;;3.55;3.15;;;;;;;27.98;44.60;100482.78;1783339;79;20560;-84
2022/08/06 05:30:09;;;;;;;3.45;2.77;;;;;;;27.98;44.58;100481.38;1782916;79;20945;-84
2022/08/06 05:32:47;;;;;;;3.42;2.83;;;;;;;27.98;44.57;100484.18;1783682;80;21087;-83
2022/08/06 05:35:14;;;;;;;3.12;2.83;;;;;;;27.96;44.58;100483.17;1782988;79;21028;-84
2022/08/06 05:37:40;;;;;;;3.37;3.00;;;;;;;27.98;44.59;100486.98;1783552;80;21522;-84
2022/08/06 05:40:08;;;;;;;3.45;2.90;;;;;;;27.98;44.57;100491.17;1783100;80;21948;-84
2022/08/06 05:42:34;;;;;;;3.98;2.75;;;;;;;27.98;44.60;100485.58;1780087;80;20976;-83
2022/08/06 05:45:01;;;;;;;3.92;3.00;;;;;;;27.98;44.59;100484.18;1780843;79;21091;-82
2022/08/06 05:47:30;;;;;;;3.50;3.20;;;;;;;27.99;44.59;100480.20;1780760;79;21515;-83
2022/08/06 05:50:07;;;;;;;3.52;2.90;;;;;;;27.99;44.59;100476.83;1780693;80;21007;-84
2022/08/06 05:52:52;;;;;;;3.15;2.85;;;;;;;28.00;44.58;100481.83;1781181;79;21283;-83
2022/08/06 05:55:45;;;;;;;3.80;3.33;;;;;;;27.99;44.58;100475.42;1780328;79;21095;-84
2022/08/06 05:58:14;;;;;;;2.83;2.62;;;;;;;28.00;44.56;100477.64;1780114;80;21004;-84
2022/08/06 06:00:41;;;;;;;3.45;3.10;;;;;;;28.00;44.58;100477.64;1780828;79;21006;-84
2022/08/06 06:03:10;;;;;;;3.42;2.98;;;;;;;28.00;44.59;100477.05;1780763;79;21086;-84
2022/08/06 06:05:36;;;;;;;4.08;2.75;;;;;;;28.01;44.63;100481.44;1753112;80;21286;-84
2022/08/06 06:08:04;;;;;;;3.47;2.87;;;;;;;28.01;44.62;100480.63;1780155;79;21063;-84
2022/08/06 06:10:33;;;;;;;3.65;2.92;;;;;;;28.00;44.67;100475.65;1753352;79;21106;-83
2022/08/06 06:12:59;;;;;;;3.33;2.85;;;;;;;28.02;44.70;100476.66;1781012;80;21055;-83
2022/08/06 06:15:25;;;;;;;4.53;3.60;;;;;;;28.02;44.69;100469.08;1780298;79;21606;-83
2022/08/06 06:18:12;;;;;;;3.55;3.10;;;;;;;28.03;44.70;100469.88;1781146;79;21063;-83
2022/08/06 06:21:12;;;;;;;3.12;2.83;;;;;;;28.04;44.72;100474.30;1780338;79;21507;-84
2022/08/06 06:24:18;;;;;;;3.30;2.92;;;;;;;28.04;44.70;100473.72;1780946;79;21032;-84
2022/08/06 06:27:07;;;;;;;3.67;3.05;;;;;;;28.03;44.69;100473.48;1776204;79;21036;-84
2022/08/06 06:30:05;;;;;;;3.40;2.95;;;;;;;28.04;44.69;100471.50;1781423;79;21564;-83
2022/08/06 06:32:58;;;;;;;3.77;3.10;;;;;;;28.04;44.69;100479.89;1780892;79;21173;-84
2022/08/06 06:35:38;;;;;;;3.20;2.90;;;;;;;28.03;44.70;100474.08;1780941;79;21035;-84
2022/08/06 06:38:28;;;;;;;3.40;3.10;;;;;;;28.03;44.70;100476.28;1780408;79;21032;-85
2022/08/06 06:41:25;;;;;;;3.42;2.95;;;;;;;28.03;44.73;100479.08;1754089;79;21094;-84
2022/08/06 06:44:18;;;;;;;3.58;2.90;;;;;;;28.03;44.74;100478.27;1780588;78;21115;-84
2022/08/06 06:47:07;;;;;;;4.28;3.02;;;;;;;28.04;44.75;100475.11;1775479;79;21157;-84
2022/08/06 06:49:46;;;;;;;3.47;3.05;;;;;;;28.04;44.75;100471.50;1780659;79;21004;-83
2022/08/06 06:52:22;;;;;;;5.08;2.85;;;;;;;28.03;44.76;100469.30;1781062;79;21091;-84
2022/08/06 06:55:11;;;;;;;3.10;2.80;;;;;;;28.04;44.75;100474.30;1753270;80;21059;-84
2022/08/06 06:57:42;;;;;;;4.55;2.90;;;;;;;28.05;44.81;100470.33;1752440;81;21020;-84
2022/08/06 07:00:09;;;;;;;5.45;3.33;;;;;;;28.04;44.79;100462.53;1756033;80;21172;-84
2022/08/06 07:02:40;;;;;;;3.80;3.10;;;;;;;28.05;44.82;100466.13;1752386;80;21067;-84
2022/08/06 07:05:06;;;;;;;3.25;2.95;;;;;;;28.06;44.83;100463.53;1752478;80;21103;-84
2022/08/06 07:07:35;;;;;;;2.95;2.58;;;;;;;28.05;44.84;100466.91;1751897;80;21083;-84
2022/08/06 07:10:02;;;;;;;3.00;2.60;;;;;;;28.05;44.84;100458.52;1752609;81;21032;-84
2022/08/06 07:12:32;;;;;;;2.98;2.67;;;;;;;28.08;44.85;100461.17;1731325;81;21150;-84
2022/08/06 07:14:59;;;;;;;3.52;3.20;;;;;;;28.08;44.83;100461.17;1752446;80;21029;-84
2022/08/06 07:17:25;;;;;;;4.08;3.20;;;;;;;28.08;44.82;100461.98;1752579;80;20940;-84
2022/08/06 07:19:54;;;;;;;3.20;2.80;;;;;;;28.09;44.83;100463.61;1752735;80;21043;-83
2022/08/06 07:22:21;;;;;;;3.40;3.05;;;;;;;28.09;44.85;100460.81;1752492;81;21060;-84
2022/08/06 07:24:50;;;;;;;3.08;2.77;;;;;;;28.10;44.83;100461.63;1752971;81;21547;-84
2022/08/06 07:27:17;;;;;;;3.22;2.92;;;;;;;28.12;44.82;100461.48;1722167;80;21020;-84
2022/08/06 07:29:44;;;;;;;3.30;3.00;;;;;;;28.13;44.80;100459.49;1695863;83;21161;-84
2022/08/06 07:32:10;;;;;;;3.15;2.62;;;;;;;28.13;44.81;100454.67;1745668;82;21534;-84
2022/08/06 07:34:36;;;;;;;3.02;2.62;;;;;;;28.13;44.80;100459.49;1748291;80;20941;-84
2022/08/06 07:37:03;;;;;;;2.85;2.58;;;;;;;28.14;44.80;100459.68;1747947;80;21180;-84
2022/08/06 07:39:37;;;;;;;2.75;2.50;;;;;;;28.14;44.79;100454.09;1748022;82;20945;-84
2022/08/06 07:42:09;;;;;;;3.12;2.83;;;;;;;28.15;44.80;100456.52;1748180;82;21080;-84
2022/08/06 07:44:37;;;;;;;3.90;2.90;;;;;;;28.15;44.79;100452.33;1747806;82;21013;-84
2022/08/06 07:47:03;;;;;;;2.95;2.65;;;;;;;28.16;44.79;100458.72;1747930;82;21052;-84
2022/08/06 07:49:43;;;;;;;3.20;2.90;;;;;;;28.16;44.79;100454.53;1747874;82;21013;-84
2022/08/06 07:52:15;;;;;;;3.83;2.87;;;;;;;28.16;44.78;100453.13;1747833;80;21067;-84
2022/08/06 07:54:41;;;;;;;3.20;2.83;;;;;;;28.17;44.78;100452.55;1748017;82;21503;-85
2022/08/06 07:57:13;;;;;;;3.92;3.40;;;;;;;28.17;44.78;100452.55;1747856;82;21014;-85
2022/08/06 07:59:40;;;;;;;3.12;2.70;;;;;;;28.17;44.78;100453.36;1747622;82;21520;-85
2022/08/06 08:02:06;;;;;;;3.20;2.90;;;;;;;28.17;44.80;100451.14;1747660;82;21945;-84
2022/08/06 08:07:18;;;;;;;3.98;3.02;;;;;;;28.18;44.79;100459.14;1747356;82;21041;-85
2022/08/06 08:09:44;;;;;;;3.37;3.05;;;;;;;28.18;44.77;100454.94;1747465;82;21087;-84
2022/08/06 08:12:13;;;;;;;3.47;3.17;;;;;;;28.19;44.77;100451.55;1747761;82;21518;-84
2022/08/06 08:14:40;;;;;;;3.25;2.92;;;;;;;28.19;44.78;100448.76;1747349;82;22036;-85
2022/08/06 08:17:06;;;;;;;3.37;2.70;;;;;;;28.19;44.78;100443.98;1747363;82;21115;-84
2022/08/06 08:19:33;;;;;;;3.87;3.17;;;;;;;28.19;44.78;100440.37;1747691;82;20980;-84
2022/08/06 08:22:02;;;;;;;3.75;3.15;;;;;;;28.19;44.78;100449.57;1747104;80;21099;-84
2022/08/06 08:24:31;;;;;;;3.20;2.75;;;;;;;28.20;44.77;100454.58;1746742;81;21048;-84
2022/08/06 08:26:58;;;;;;;3.58;2.92;;;;;;;28.20;44.78;100446.99;1760842;81;21471;-85
2022/08/06 08:29:24;;;;;;;4.55;3.20;;;;;;;28.21;44.79;100452.00;1770842;81;20937;-84
2022/08/06 08:31:51;;;;;;;3.60;3.15;;;;;;;28.21;44.77;100449.20;1771267;80;21032;-84
2022/08/06 08:34:18;;;;;;;3.40;3.10;;;;;;;28.22;44.77;100445.23;1771145;81;21004;-84
2022/08/06 08:36:44;;;;;;;4.17;3.20;;;;;;;28.22;44.78;100439.64;1770978;80;21079;-83
2022/08/06 08:39:15;;;;;;;3.62;3.00;;;;;;;28.22;44.75;100444.61;1771191;80;20996;-84
2022/08/06 08:41:52;;;;;;;3.37;2.67;;;;;;;28.22;44.77;100445.23;1771116;80;21022;-83
2022/08/06 08:44:24;;;;;;;2.87;2.60;;;;;;;28.21;44.78;100444.42;1770973;79;21128;-85
2022/08/06 08:46:51;;;;;;;3.30;2.95;;;;;;;28.22;44.76;100454.40;1746619;80;21141;-84
2022/08/06 08:49:28;;;;;;;3.30;2.83;;;;;;;28.22;44.76;100454.40;1765958;81;21018;-84
2022/08/06 08:51:55;;;;;;;2.98;2.67;;;;;;;28.22;44.76;100450.83;1764825;81;21762;-84
2022/08/06 08:54:23;;;;;;;3.10;2.80;;;;;;;28.23;44.73;100448.22;1765968;81;21052;-84
2022/08/06 08:56:49;;;;;;;3.17;2.87;;;;;;;28.23;44.73;100449.62;1765961;81;21093;-84
2022/08/06 08:59:16;;;;;;;2.70;2.50;;;;;;;28.23;44.75;100444.02;1765724;81;21099;-84
2022/08/06 09:01:42;;;;;;;3.37;3.08;;;;;;;28.23;44.76;100442.03;1766195;79;21121;-84
2022/08/06 09:04:09;;;;;;;3.42;2.85;;;;;;;28.23;44.76;100442.62;1766004;81;21334;-84
2022/08/06 09:06:36;;;;;;;3.37;3.08;;;;;;;28.23;44.75;100440.64;1765476;81;21662;-83
2022/08/06 09:09:04;;;;;;;3.08;2.77;;;;;;;28.24;44.75;100433.05;1766079;81;21074;-84
2022/08/06 09:11:33;;;;;;;3.10;2.80;;;;;;;28.23;44.73;100432.24;1746863;81;21743;-84
2022/08/06 09:14:03;;;;;;;3.62;2.52;;;;;;;28.24;44.75;100441.45;1765536;79;21018;-84
2022/08/06 09:16:31;;;;;;;3.50;3.20;;;;;;;28.24;44.76;100442.25;1765953;79;21308;-84
2022/08/06 09:18:57;;;;;;;3.40;3.10;;;;;;;28.24;44.76;100438.06;1746867;81;20962;-84
2022/08/06 09:21:23;;;;;;;3.33;3.02;;;;;;;28.25;44.75;100431.88;1765625;81;21428;-84
2022/08/06 09:23:50;;;;;;;3.42;3.10;;;;;;;28.26;44.76;100427.90;1765739;81;20910;-84
2022/08/06 09:26:16;;;;;;;3.35;3.05;;;;;;;28.25;44.75;100424.30;1766057;80;21003;-84
2022/08/06 09:28:43;;;;;;;4.08;3.00;;;;;;;28.26;44.75;100425.10;1765809;81;22041;-84
2022/08/06 09:31:15;;;;;;;3.37;3.08;;;;;;;28.25;44.77;100431.28;1765792;81;20902;-84
2022/08/06 09:34:03;;;;;;;3.50;3.20;;;;;;;28.26;44.76;100427.90;1766051;80;21178;-85
2022/08/06 09:36:31;;;;;;;3.12;2.83;;;;;;;28.26;44.77;100432.91;1765785;80;20991;-84
2022/08/06 09:38:59;;;;;;;3.30;3.00;;;;;;;28.25;44.77;100427.67;1770293;80;21032;-83
2022/08/06 09:41:28;;;;;;;3.25;2.72;;;;;;;28.25;44.76;100424.30;1766008;81;21094;-84
2022/08/06 09:43:56;;;;;;;3.02;2.72;;;;;;;28.25;44.77;100426.28;1765569;81;21555;-84
2022/08/06 09:46:41;;;;;;;3.35;3.00;;;;;;;28.26;44.76;100422.30;1765938;81;20973;-84
2022/08/06 09:49:10;;;;;;;3.35;3.05;;;;;;;28.25;44.77;100417.30;1765785;80;21009;-84
2022/08/06 09:51:37;;;;;;;3.33;2.87;;;;;;;28.26;44.79;100423.70;1766165;81;21004;-84
2022/08/06 09:54:05;;;;;;;3.30;3.00;;;;;;;28.25;44.78;100418.70;1766094;80;21350;-84
2022/08/06 09:56:32;;;;;;;3.50;3.08;;;;;;;28.27;44.79;100422.49;1765944;80;21026;-84
2022/08/06 09:59:00;;;;;;;3.02;2.72;;;;;;;28.26;44.80;100416.70;1766171;81;21113;-84
2022/08/06 10:01:27;;;;;;;3.33;3.02;;;;;;;28.26;44.81;100421.72;1765971;81;21046;-84
2022/08/06 10:03:56;;;;;;;3.00;2.70;;;;;;;28.26;44.81;100416.13;1765901;81;20998;-84
2022/08/06 10:06:29;;;;;;;3.62;3.08;;;;;;;28.27;44.81;100414.10;1747167;81;21324;-84
2022/08/06 10:09:12;;;;;;;3.27;2.98;;;;;;;28.26;44.81;100417.52;1765791;81;21058;-84
2022/08/06 10:11:40;;;;;;;3.30;2.87;;;;;;;28.27;44.81;100414.10;1766155;81;21070;-84
2022/08/06 10:14:23;;;;;;;3.37;3.08;;;;;;;28.27;44.79;100413.52;1765898;81;21114;-84
2022/08/06 10:17:12;;;;;;;3.20;2.90;;;;;;;28.28;44.81;100411.52;1766169;81;21046;-84
2022/08/06 10:19:45;;;;;;;3.42;2.95;;;;;;;28.27;44.81;100411.30;1766223;81;21027;-84
2022/08/06 10:22:13;;;;;;;3.45;3.08;;;;;;;28.28;44.80;100414.32;1766045;81;21081;-84
2022/08/06 10:24:42;;;;;;;3.27;3.00;;;;;;;28.26;44.79;100408.31;1766169;81;21046;-84
2022/08/06 10:27:14;;;;;;;3.20;2.90;;;;;;;28.26;44.83;100410.52;1762860;80;21084;-84
2022/08/06 10:29:45;;;;;;;3.10;2.80;;;;;;;28.27;44.83;100407.11;1758320;81;21072;-83
2022/08/06 10:32:39;;;;;;;3.50;3.20;;;;;;;28.27;44.85;100409.31;1766905;80;21978;-84
2022/08/06 10:35:06;;;;;;;3.45;3.08;;;;;;;28.28;44.85;100407.33;1778976;79;21074;-83
2022/08/06 10:37:36;;;;;;;3.42;3.12;;;;;;;28.27;44.83;100402.91;1779049;80;21181;-84
2022/08/06 10:40:03;;;;;;;3.58;3.27;;;;;;;28.27;44.83;100395.92;1779524;80;21075;-84
2022/08/06 10:42:29;;;;;;;3.80;3.02;;;;;;;28.27;44.82;100401.52;1779144;79;20995;-84
2022/08/06 10:44:56;;;;;;;3.10;2.80;;;;;;;28.27;44.83;100398.72;1778789;79;21891;-84
2022/08/06 10:47:22;;;;;;;2.90;2.60;;;;;;;28.28;44.85;100403.13;1779218;79;21059;-84
2022/08/06 10:49:49;;;;;;;3.30;3.00;;;;;;;28.28;44.83;100398.34;1779204;80;21551;-83
2022/08/06 10:52:15;;;;;;;3.10;2.80;;;;;;;28.28;44.85;100399.75;1779111;79;20979;-83
2022/08/06 10:54:42;;;;;;;3.30;2.95;;;;;;;28.29;44.86;100400.55;1779420;79;21125;-83
2022/08/06 10:57:14;;;;;;;3.33;3.02;;;;;;;28.28;44.87;100395.55;1779485;79;21348;-84
2022/08/06 10:59:43;;;;;;;3.30;3.00;;;;;;;28.28;44.87;100392.75;1778923;80;20996;-84
2022/08/06 11:02:24;;;;;;;2.90;2.53;;;;;;;28.29;44.88;100393.56;1779457;79;21024;-84
2022/08/06 11:04:59;;;;;;;3.08;2.77;;;;;;;28.29;44.86;100396.36;1725274;80;21109;-84
2022/08/06 11:07:52;;;;;;;3.83;3.08;;;;;;;28.28;44.83;100391.35;1779349;79;21078;-84
2022/08/06 11:10:49;;;;;;;3.20;2.90;;;;;;;28.30;44.84;100396.58;1779122;79;21345;-84
2022/08/06 11:13:33;;;;;;;3.50;3.20;;;;;;;28.28;44.85;100390.55;1779309;80;21102;-84
2022/08/06 11:16:00;;;;;;;3.72;3.08;;;;;;;28.27;44.83;100392.53;1779102;80;21110;-84
2022/08/06 11:18:26;;;;;;;3.37;2.60;;;;;;;28.27;44.83;100389.73;1779360;79;21089;-84
2022/08/06 11:20:54;;;;;;;3.52;3.22;;;;;;;28.27;44.86;100393.93;1779520;80;20998;-84
2022/08/06 11:23:29;;;;;;;3.37;3.08;;;;;;;28.27;44.87;100389.73;1779117;80;21969;-85
2022/08/06 11:26:01;;;;;;;3.33;3.02;;;;;;;28.28;44.89;100386.34;1779440;80;21085;-84
2022/08/06 11:28:36;;;;;;;4.33;2.92;;;;;;;28.28;44.88;100393.34;1774160;80;21052;-84
2022/08/06 11:31:05;;;;;;;3.05;2.75;;;;;;;28.27;44.89;100391.13;1773669;80;21439;-84
2022/08/06 11:33:40;;;;;;;3.15;2.70;;;;;;;28.28;44.89;100396.95;1773509;80;20977;-83
2022/08/06 11:36:09;;;;;;;3.20;2.90;;;;;;;28.28;44.89;100391.94;1743768;80;21078;-84
2022/08/06 11:38:56;;;;;;;3.20;2.87;;;;;;;28.28;44.89;100397.54;1773582;80;20988;-84
2022/08/06 11:41:30;;;;;;;3.35;3.05;;;;;;;28.29;44.87;100392.16;1773629;80;21776;-84
2022/08/06 11:44:05;;;;;;;3.70;3.02;;;;;;;28.28;44.88;100392.75;1783523;79;21477;-85
2022/08/06 11:46:39;;;;;;;3.40;2.95;;;;;;;28.29;44.88;100387.97;1726955;83;21027;-85
2022/08/06 11:49:13;;;;;;;3.42;3.12;;;;;;;28.28;44.87;100388.55;1798063;79;21951;-85